createdAt,value
2023-02-28T00:00:13.107Z,4.70
2023-02-28T00:02:41.310Z,4.87
2023-02-28T00:05:09.194Z,5.23
2023-02-28T00:07:36.565Z,5.37
2023-02-28T00:10:04.196Z,5.23
2023-02-28T00:12:31.033Z,5.00
2023-02-28T00:14:57.396Z,5.00
2023-02-28T00:17:24.624Z,5.77
2023-02-28T00:19:52.210Z,4.83
2023-02-28T00:22:21.063Z,5.30
2023-02-28T00:24:48.334Z,5.17
2023-02-28T00:27:15.746Z,5.03
2023-02-28T00:29:42.524Z,5.70
2023-02-28T00:32:08.969Z,5.17
2023-02-28T00:34:38.813Z,5.50
2023-02-28T00:37:07.444Z,5.17
2023-02-28T00:39:38.362Z,5.30
2023-02-28T00:42:05.296Z,5.60
2023-02-28T00:44:31.904Z,5.20
2023-02-28T00:46:59.862Z,5.70
2023-02-28T00:49:28.499Z,5.30
2023-02-28T00:51:56.362Z,5.60
2023-02-28T00:54:24.342Z,5.57
2023-02-28T00:56:51.428Z,5.47
2023-02-28T00:59:18.621Z,5.80
2023-02-28T01:01:46.674Z,5.93
2023-02-28T01:04:15.058Z,5.57
2023-02-28T01:06:41.965Z,5.80
2023-02-28T01:09:08.860Z,6.27
2023-02-28T01:11:36.173Z,6.17
2023-02-28T01:14:03.379Z,6.03
2023-02-28T01:16:29.792Z,6.37
2023-02-28T01:18:56.546Z,6.00
2023-02-28T01:21:23.703Z,6.57
2023-02-28T01:23:50.705Z,6.17
2023-02-28T01:26:22.063Z,6.00
2023-02-28T01:28:50.479Z,6.07
2023-02-28T01:31:19.152Z,6.30
2023-02-28T01:33:46.545Z,5.73
2023-02-28T01:36:17.078Z,5.50
2023-02-28T01:38:44.818Z,6.30
2023-02-28T01:41:21.688Z,6.63
2023-02-28T01:43:48.234Z,6.37
2023-02-28T01:46:15.716Z,6.40
2023-02-28T01:48:48.113Z,6.80
2023-02-28T01:51:24.401Z,6.20
2023-02-28T01:53:56.710Z,6.10
2023-02-28T01:56:28.587Z,6.27
2023-02-28T01:58:56.221Z,6.27
2023-02-28T02:01:24.425Z,7.00
2023-02-28T02:04:00.316Z,6.47
2023-02-28T02:06:31.780Z,6.33
2023-02-28T02:08:58.438Z,6.03
2023-02-28T02:11:26.720Z,6.07
2023-02-28T02:14:05.333Z,6.60
2023-02-28T02:16:52.983Z,6.23
2023-02-28T02:19:47.680Z,6.17
2023-02-28T02:22:51.294Z,6.73
2023-02-28T02:25:32.473Z,6.90
2023-02-28T02:28:17.406Z,6.87
2023-02-28T02:31:13.469Z,7.23
2023-02-28T02:34:01.027Z,6.37
2023-02-28T02:36:39.929Z,7.17
2023-02-28T02:39:28.762Z,6.57
2023-02-28T02:41:57.682Z,7.07
2023-02-28T02:44:45.607Z,6.80
2023-02-28T02:47:16.078Z,6.63
2023-02-28T02:49:48.659Z,7.10
2023-02-28T02:52:19.533Z,7.07
2023-02-28T02:54:49.047Z,7.03
2023-02-28T02:57:25.214Z,7.73
2023-02-28T02:59:56.383Z,7.40
2023-02-28T03:02:24.444Z,7.07
2023-02-28T03:05:01.785Z,6.50
2023-02-28T03:07:28.895Z,7.20
2023-02-28T03:09:58.473Z,7.30
2023-02-28T03:12:34.002Z,6.77
2023-02-28T03:15:13.789Z,7.17
2023-02-28T03:18:02.421Z,7.10
2023-02-28T03:20:39.818Z,7.70
2023-02-28T03:23:17.492Z,7.23
2023-02-28T03:25:49.976Z,6.30
2023-02-28T03:28:37.971Z,7.33
2023-02-28T03:31:13.990Z,7.10
2023-02-28T03:33:46.950Z,7.27
2023-02-28T03:36:19.193Z,7.83
2023-02-28T03:38:52.096Z,7.13
2023-02-28T03:41:23.838Z,7.47
2023-02-28T03:44:00.593Z,7.93
2023-02-28T03:46:32.279Z,8.00
2023-02-28T03:49:06.037Z,7.50
2023-02-28T03:51:33.777Z,7.50
2023-02-28T03:54:08.294Z,7.57
2023-02-28T03:56:50.264Z,7.77
2023-02-28T03:59:29.365Z,7.83
2023-02-28T04:01:56.288Z,8.67
2023-02-28T04:04:23.610Z,8.07
2023-02-28T04:06:51.908Z,7.90
2023-02-28T04:09:18.397Z,7.20
2023-02-28T04:11:53.178Z,8.40
2023-02-28T04:14:19.936Z,8.17
2023-02-28T04:16:46.825Z,8.10
2023-02-28T04:19:15.349Z,8.47
2023-02-28T04:21:50.947Z,7.77
2023-02-28T04:24:23.718Z,8.70
2023-02-28T04:26:52.660Z,8.27
2023-02-28T04:29:28.281Z,8.80
2023-02-28T04:31:55.758Z,8.23
2023-02-28T04:34:22.319Z,9.10
2023-02-28T04:37:10.371Z,8.93
2023-02-28T04:39:38.766Z,9.40
2023-02-28T04:42:05.332Z,9.07
2023-02-28T04:44:32.413Z,8.77
2023-02-28T04:46:58.815Z,8.57
2023-02-28T04:49:25.212Z,8.93
2023-02-28T04:51:51.819Z,8.40
2023-02-28T04:54:18.994Z,7.80
2023-02-28T04:56:45.820Z,8.80
2023-02-28T04:59:12.183Z,8.87
2023-02-28T05:01:39.219Z,8.77
2023-02-28T05:04:05.750Z,8.87
2023-02-28T05:06:34.105Z,9.27
2023-02-28T05:09:00.778Z,9.93
2023-02-28T05:11:35.858Z,8.60
2023-02-28T05:14:04.783Z,9.47
2023-02-28T05:16:32.559Z,9.03
2023-02-28T05:18:59.230Z,9.60
2023-02-28T05:21:35.684Z,9.40
2023-02-28T05:24:06.009Z,9.03
2023-02-28T05:26:36.720Z,9.23
2023-02-28T05:29:03.384Z,9.37
2023-02-28T05:31:30.100Z,8.77
2023-02-28T05:33:56.685Z,8.40
2023-02-28T05:36:23.263Z,8.90
2023-02-28T05:38:51.225Z,9.10
2023-02-28T05:41:20.224Z,9.10
2023-02-28T05:43:47.687Z,9.10
2023-02-28T05:46:14.494Z,8.93
2023-02-28T05:48:42.385Z,9.10
2023-02-28T05:51:09.894Z,8.47
2023-02-28T05:53:37.040Z,8.67
2023-02-28T05:56:04.669Z,8.90
2023-02-28T05:58:32.037Z,8.67
2023-02-28T06:01:20.071Z,8.70
2023-02-28T06:03:46.894Z,8.93
2023-02-28T06:06:13.313Z,8.53
2023-02-28T06:08:40.129Z,8.87
2023-02-28T06:11:07.559Z,8.60
2023-02-28T06:13:33.954Z,9.20
2023-02-28T06:16:03.456Z,8.60
2023-02-28T06:18:30.047Z,8.60
2023-02-28T06:20:56.803Z,8.70
2023-02-28T06:23:23.301Z,8.83
2023-02-28T06:25:50.422Z,8.73
2023-02-28T06:28:17.460Z,8.93
2023-02-28T06:30:46.386Z,8.60
2023-02-28T06:33:12.985Z,8.23
2023-02-28T06:35:39.402Z,8.87
2023-02-28T06:38:05.797Z,9.03
2023-02-28T06:40:35.047Z,8.80
2023-02-28T06:43:01.529Z,8.67
2023-02-28T06:45:27.895Z,8.30
2023-02-28T06:47:54.551Z,8.67
2023-02-28T06:50:21.441Z,8.67
2023-02-28T06:52:48.371Z,9.27
2023-02-28T06:55:14.880Z,8.23
2023-02-28T06:57:41.283Z,8.43
2023-02-28T07:00:09.757Z,8.70
2023-02-28T07:02:37.393Z,7.73
2023-02-28T07:05:04.957Z,8.70
2023-02-28T07:07:31.458Z,8.17
2023-02-28T07:09:57.839Z,8.53
2023-02-28T07:12:24.278Z,8.53
2023-02-28T07:14:50.927Z,8.80
2023-02-28T07:17:17.308Z,8.37
2023-02-28T07:19:44.101Z,8.97
2023-02-28T07:22:10.628Z,8.13
2023-02-28T07:24:37.203Z,8.57
2023-02-28T07:27:03.883Z,8.93
2023-02-28T07:29:30.711Z,8.50
2023-02-28T07:31:57.327Z,8.70
2023-02-28T07:34:24.253Z,8.53
2023-02-28T07:36:54.425Z,8.40
2023-02-28T07:39:22.196Z,8.17
2023-02-28T07:41:48.717Z,8.73
2023-02-28T07:44:15.644Z,8.50
2023-02-28T07:46:42.149Z,8.20
2023-02-28T07:49:08.712Z,8.67
2023-02-28T07:51:35.082Z,8.13
2023-02-28T07:54:02.011Z,8.50
2023-02-28T07:56:28.785Z,9.17
2023-02-28T07:58:55.483Z,8.53
2023-02-28T08:01:22.756Z,8.90
2023-02-28T08:03:49.551Z,8.60
2023-02-28T08:06:18.763Z,9.63
2023-02-28T08:08:45.450Z,8.70
2023-02-28T08:11:11.844Z,8.63
2023-02-28T08:13:38.217Z,8.67
2023-02-28T08:16:05.203Z,9.43
2023-02-28T08:18:33.201Z,9.37
2023-02-28T08:21:00.188Z,9.33
2023-02-28T08:23:26.800Z,9.07
2023-02-28T08:25:57.203Z,8.97
2023-02-28T08:28:26.771Z,8.30
2023-02-28T08:30:53.859Z,9.93
2023-02-28T08:33:20.269Z,8.73
2023-02-28T08:35:46.712Z,8.80
2023-02-28T08:38:13.117Z,9.60
2023-02-28T08:40:39.560Z,8.90
2023-02-28T08:43:05.965Z,8.90
2023-02-28T08:45:32.412Z,9.93
2023-02-28T08:47:58.836Z,9.00
2023-02-28T08:50:25.620Z,9.30
2023-02-28T08:52:52.006Z,9.27
2023-02-28T08:55:18.398Z,9.37
2023-02-28T08:57:44.819Z,9.70
2023-02-28T09:00:14.454Z,9.90
2023-02-28T09:02:43.649Z,9.93
2023-02-28T09:05:10.520Z,8.93
2023-02-28T09:07:36.956Z,9.37
2023-02-28T09:10:03.530Z,9.57
2023-02-28T09:12:35.511Z,9.17
2023-02-28T09:15:02.838Z,9.47
2023-02-28T09:17:30.636Z,9.33
2023-02-28T09:19:57.991Z,9.27
2023-02-28T09:22:24.862Z,9.17
2023-02-28T09:24:51.271Z,9.60
2023-02-28T09:27:18.129Z,9.53
2023-02-28T09:29:44.606Z,10.47
2023-02-28T09:32:11.452Z,9.30
2023-02-28T09:34:38.490Z,9.40
2023-02-28T09:37:05.184Z,9.53
2023-02-28T09:39:32.607Z,9.20
2023-02-28T09:41:59.676Z,9.33
2023-02-28T09:44:32.611Z,10.67
2023-02-28T09:47:06.115Z,9.40
2023-02-28T09:49:43.392Z,9.13
2023-02-28T09:52:14.657Z,9.23
2023-02-28T09:54:41.493Z,10.17
2023-02-28T09:57:09.650Z,9.80
2023-02-28T10:00:19.462Z,9.27
2023-02-28T10:03:13.397Z,9.23
2023-02-28T10:05:45.264Z,9.60
2023-02-28T10:08:19.364Z,9.63
2023-02-28T10:10:49.419Z,10.27
2023-02-28T10:13:25.197Z,9.93
2023-02-28T10:15:57.306Z,9.47
2023-02-28T10:18:31.824Z,9.40
2023-02-28T10:20:59.444Z,8.13
2023-02-28T10:23:37.004Z,9.40
2023-02-28T10:26:13.914Z,9.40
2023-02-28T10:28:41.114Z,9.30
2023-02-28T10:31:12.621Z,9.90
2023-02-28T10:33:39.025Z,9.93
2023-02-28T10:36:07.772Z,9.47
2023-02-28T10:38:40.536Z,9.60
2023-02-28T10:41:09.593Z,10.20
2023-02-28T10:43:37.519Z,9.60
2023-02-28T10:46:10.702Z,8.67
2023-02-28T10:48:45.705Z,9.57
2023-02-28T10:51:17.267Z,10.23
2023-02-28T10:53:59.649Z,9.30
2023-02-28T10:56:27.712Z,9.40
2023-02-28T10:59:14.953Z,8.90
2023-02-28T11:01:53.794Z,9.10
2023-02-28T11:04:23.389Z,9.57
2023-02-28T11:07:07.988Z,8.97
2023-02-28T11:09:39.580Z,9.63
2023-02-28T11:12:10.245Z,9.17
2023-02-28T11:14:53.076Z,9.60
2023-02-28T11:17:27.007Z,10.53
2023-02-28T11:20:00.046Z,9.53
2023-02-28T11:22:29.777Z,9.00
2023-02-28T11:25:00.399Z,8.60
2023-02-28T11:27:41.039Z,10.27
2023-02-28T11:30:24.556Z,9.20
2023-02-28T11:32:51.290Z,9.67
2023-02-28T11:35:28.059Z,12.80
2023-02-28T11:37:54.818Z,10.00
2023-02-28T11:40:39.632Z,9.67
2023-02-28T11:43:22.474Z,9.60
2023-02-28T11:45:53.829Z,11.00
2023-02-28T11:48:32.012Z,11.07
2023-02-28T11:51:09.504Z,10.07
2023-02-28T11:53:51.141Z,9.30
2023-02-28T11:56:45.422Z,10.67
2023-02-28T11:59:36.548Z,11.50
2023-02-28T12:02:25.408Z,9.93
2023-02-28T12:05:17.350Z,9.67
2023-02-28T12:07:53.107Z,9.83
2023-02-28T12:10:29.781Z,10.30
2023-02-28T12:13:25.020Z,9.80
2023-02-28T12:16:19.500Z,9.60
2023-02-28T12:19:09.444Z,10.40
2023-02-28T12:22:23.367Z,10.87
2023-02-28T12:25:08.226Z,9.23
2023-02-28T12:27:39.778Z,10.23
2023-02-28T12:30:25.650Z,9.50
2023-02-28T12:32:57.935Z,11.90
2023-02-28T12:35:37.869Z,13.13
2023-02-28T12:38:25.533Z,11.67
2023-02-28T12:40:57.586Z,10.63
2023-02-28T12:43:31.250Z,10.13
2023-02-28T12:46:02.300Z,10.50
2023-02-28T12:48:38.766Z,10.47
2023-02-28T12:51:08.373Z,9.70
2023-02-28T12:53:59.824Z,9.73
2023-02-28T12:56:34.449Z,10.20
2023-02-28T12:59:42.789Z,10.10
2023-02-28T13:02:37.325Z,10.10
2023-02-28T13:05:41.272Z,10.20
2023-02-28T13:08:41.898Z,9.83
2023-02-28T13:11:21.031Z,9.87
2023-02-28T13:13:48.066Z,9.57
2023-02-28T13:16:14.473Z,9.60
2023-02-28T13:18:46.657Z,9.23
2023-02-28T13:21:31.054Z,9.70
2023-02-28T13:24:01.657Z,9.47
2023-02-28T13:26:31.060Z,8.97
2023-02-28T13:29:16.935Z,9.50
2023-02-28T13:32:25.728Z,9.70
2023-02-28T13:34:52.451Z,9.23
2023-02-28T13:37:18.776Z,10.30
2023-02-28T13:39:45.096Z,10.60
2023-02-28T13:42:31.719Z,10.30
2023-02-28T13:45:04.350Z,10.47
2023-02-28T13:47:39.927Z,10.13
2023-02-28T13:50:38.932Z,10.10
2023-02-28T13:53:27.597Z,9.60
2023-02-28T13:56:16.655Z,9.87
2023-02-28T13:58:52.328Z,9.83
2023-02-28T14:01:52.582Z,9.40
2023-02-28T14:04:51.288Z,9.03
2023-02-28T14:07:45.858Z,9.00
2023-02-28T14:10:25.393Z,9.40
2023-02-28T14:12:58.599Z,10.10
2023-02-28T14:15:34.241Z,10.70
2023-02-28T14:18:06.552Z,9.70
2023-02-28T14:20:35.013Z,9.60
2023-02-28T14:23:18.310Z,9.30
2023-02-28T14:26:06.013Z,9.43
2023-02-28T14:28:47.744Z,9.83
2023-02-28T14:31:20.638Z,10.23
2023-02-28T14:33:59.860Z,9.93
2023-02-28T14:36:32.731Z,10.00
2023-02-28T14:39:05.500Z,9.43
2023-02-28T14:41:36.303Z,10.70
2023-02-28T14:44:13.780Z,10.23
2023-02-28T14:46:42.618Z,10.23
2023-02-28T14:49:22.707Z,9.73
2023-02-28T14:52:02.279Z,10.10
2023-02-28T14:54:29.911Z,10.17
2023-02-28T14:56:56.576Z,9.30
2023-02-28T14:59:32.926Z,10.10
2023-02-28T15:02:23.210Z,10.47
2023-02-28T15:04:57.988Z,10.33
2023-02-28T15:07:29.523Z,9.67
2023-02-28T15:10:17.169Z,9.53
2023-02-28T15:12:52.117Z,9.43
2023-02-28T15:15:20.049Z,10.60
2023-02-28T15:17:51.101Z,11.10
2023-02-28T15:20:19.128Z,9.27
2023-02-28T15:22:48.139Z,10.23
2023-02-28T15:25:19.298Z,9.67
2023-02-28T15:27:50.464Z,10.50
2023-02-28T15:30:26.400Z,10.53
2023-02-28T15:33:24.267Z,10.87
2023-02-28T15:35:51.552Z,10.90
2023-02-28T15:38:24.543Z,11.20
2023-02-28T15:40:56.340Z,10.87
2023-02-28T15:43:37.451Z,11.17
2023-02-28T15:46:14.476Z,10.87
2023-02-28T15:48:51.954Z,10.93
2023-02-28T15:51:25.327Z,10.53
2023-02-28T15:53:59.810Z,10.80
2023-02-28T15:56:28.889Z,10.93
2023-02-28T15:59:04.043Z,10.43
2023-02-28T16:01:34.214Z,10.47
2023-02-28T16:04:20.931Z,11.70
2023-02-28T16:07:02.966Z,11.73
2023-02-28T16:09:33.056Z,11.30
2023-02-28T16:12:02.916Z,11.70
2023-02-28T16:14:31.705Z,11.27
2023-02-28T16:17:05.793Z,12.50
2023-02-28T16:19:33.885Z,12.00
2023-02-28T16:22:01.387Z,12.00
2023-02-28T16:24:28.074Z,11.70
2023-02-28T16:26:56.857Z,12.20
2023-02-28T16:29:30.618Z,12.23
2023-02-28T16:31:57.572Z,12.00
2023-02-28T16:34:24.781Z,11.40
2023-02-28T16:36:51.830Z,12.37
2023-02-28T16:39:19.729Z,12.83
2023-02-28T16:41:48.336Z,12.40
2023-02-28T16:44:25.469Z,13.43
2023-02-28T16:46:51.872Z,12.97
2023-02-28T16:49:18.286Z,12.83
2023-02-28T16:51:44.669Z,13.30
2023-02-28T16:54:11.157Z,13.50
2023-02-28T16:56:41.923Z,13.53
2023-02-28T16:59:10.967Z,12.57
2023-02-28T17:01:37.708Z,13.20
2023-02-28T17:04:04.267Z,13.03
2023-02-28T17:06:32.052Z,13.87
2023-02-28T17:09:00.152Z,13.50
2023-02-28T17:11:27.479Z,12.70
2023-02-28T17:13:57.219Z,13.27
2023-02-28T17:16:29.215Z,13.03
2023-02-28T17:18:59.824Z,13.90
2023-02-28T17:21:26.356Z,13.33
2023-02-28T17:23:52.780Z,12.87
2023-02-28T17:26:21.625Z,14.43
2023-02-28T17:28:49.305Z,13.57
2023-02-28T17:31:16.236Z,13.43
2023-02-28T17:33:42.741Z,14.23
2023-02-28T17:36:16.047Z,13.30
2023-02-28T17:38:42.722Z,12.97
2023-02-28T17:41:11.863Z,13.03
2023-02-28T17:43:38.803Z,13.57
2023-02-28T17:46:06.469Z,14.10
2023-02-28T17:48:34.211Z,13.07
2023-02-28T17:51:00.605Z,12.83
2023-02-28T17:53:28.105Z,14.73
2023-02-28T17:55:54.566Z,13.53
2023-02-28T17:58:20.990Z,13.77
2023-02-28T18:00:48.709Z,14.23
2023-02-28T18:03:15.220Z,14.87
2023-02-28T18:05:41.761Z,14.17
2023-02-28T18:08:11.424Z,14.27
2023-02-28T18:10:37.780Z,14.63
2023-02-28T18:13:04.678Z,15.70
2023-02-28T18:15:31.131Z,13.97
2023-02-28T18:17:57.637Z,15.87
2023-02-28T18:20:24.051Z,15.53
2023-02-28T18:22:50.532Z,14.73
2023-02-28T18:25:17.883Z,14.73
2023-02-28T18:27:54.241Z,15.77
2023-02-28T18:30:21.879Z,14.93
2023-02-28T18:32:48.753Z,14.70
2023-02-28T18:35:15.316Z,14.77
2023-02-28T18:37:41.998Z,14.23
2023-02-28T18:40:09.260Z,15.80
2023-02-28T18:42:35.955Z,15.23
2023-02-28T18:45:02.339Z,14.07
2023-02-28T18:47:29.022Z,15.63
2023-02-28T18:49:55.404Z,14.93
2023-02-28T18:52:21.788Z,15.60
2023-02-28T18:54:48.311Z,16.10
2023-02-28T18:57:15.230Z,15.87
2023-02-28T18:59:41.878Z,14.50
2023-02-28T19:02:09.020Z,15.20
2023-02-28T19:04:35.713Z,15.70
2023-02-28T19:07:02.874Z,14.47
2023-02-28T19:09:29.325Z,15.20
2023-02-28T19:11:55.710Z,15.00
2023-02-28T19:14:22.120Z,15.73
2023-02-28T19:16:50.122Z,15.70
2023-02-28T19:19:16.583Z,16.47
2023-02-28T19:21:42.979Z,16.10
2023-02-28T19:24:09.384Z,15.63
2023-02-28T19:26:35.926Z,14.57
2023-02-28T19:29:04.405Z,14.93
2023-02-28T19:31:31.137Z,14.73
2023-02-28T19:33:58.922Z,15.47
2023-02-28T19:36:25.483Z,14.70
2023-02-28T19:38:51.882Z,14.77
2023-02-28T19:41:18.765Z,14.33
2023-02-28T19:43:45.827Z,14.87
2023-02-28T19:46:12.650Z,16.03
2023-02-28T19:48:39.601Z,15.93
2023-02-28T19:51:09.472Z,14.80
2023-02-28T19:53:37.892Z,14.43
2023-02-28T19:56:04.747Z,15.77
2023-02-28T19:58:32.399Z,14.63
2023-02-28T20:01:01.262Z,14.37
2023-02-28T20:03:27.717Z,15.70
2023-02-28T20:06:09.876Z,15.70
2023-02-28T20:08:37.541Z,15.87
2023-02-28T20:11:15.577Z,15.53
2023-02-28T20:13:42.138Z,16.00
2023-02-28T20:16:11.132Z,16.13
2023-02-28T20:18:39.111Z,17.10
2023-02-28T20:21:08.983Z,15.80
2023-02-28T20:23:37.589Z,15.50
2023-02-28T20:26:04.365Z,16.70
2023-02-28T20:28:30.842Z,15.90
2023-02-28T20:30:57.573Z,17.60
2023-02-28T20:33:24.214Z,17.63
2023-02-28T20:35:52.706Z,17.13
2023-02-28T20:38:20.137Z,16.70
2023-02-28T20:40:46.967Z,18.63
2023-02-28T20:43:13.413Z,18.30
2023-02-28T20:45:40.271Z,17.27
2023-02-28T20:48:06.699Z,18.83
2023-02-28T20:50:33.089Z,17.10
2023-02-28T20:52:59.453Z,18.83
2023-02-28T20:55:25.869Z,18.17
2023-02-28T20:57:54.059Z,16.53
2023-02-28T21:00:22.373Z,18.07
2023-02-28T21:02:48.801Z,15.80
2023-02-28T21:05:15.559Z,18.20
2023-02-28T21:07:41.982Z,16.27
2023-02-28T21:10:09.685Z,16.60
2023-02-28T21:12:36.066Z,17.20
2023-02-28T21:15:02.530Z,17.50
2023-02-28T21:17:29.478Z,16.70
2023-02-28T21:19:55.894Z,16.90
2023-02-28T21:22:22.360Z,17.30
2023-02-28T21:24:48.741Z,15.83
2023-02-28T21:27:15.619Z,18.77
2023-02-28T21:29:42.344Z,19.67
2023-02-28T21:32:08.908Z,17.90
2023-02-28T21:34:35.312Z,16.87
2023-02-28T21:37:02.372Z,18.40
2023-02-28T21:39:30.307Z,18.97
2023-02-28T21:42:03.910Z,19.03
2023-02-28T21:44:32.175Z,17.93
2023-02-28T21:47:01.912Z,18.63
2023-02-28T21:49:29.410Z,18.30
2023-02-28T21:51:55.839Z,19.73
2023-02-28T21:54:22.658Z,17.80
2023-02-28T21:56:50.694Z,17.53
2023-02-28T21:59:17.756Z,18.33
2023-02-28T22:01:45.309Z,18.07
2023-02-28T22:04:21.126Z,16.93
2023-02-28T22:06:57.317Z,18.07
2023-02-28T22:09:24.023Z,17.07
2023-02-28T22:11:50.478Z,19.07
2023-02-28T22:14:17.324Z,18.40
2023-02-28T22:16:54.534Z,18.20
2023-02-28T22:19:22.703Z,18.03
2023-02-28T22:21:50.130Z,20.77
2023-02-28T22:24:20.103Z,18.37
2023-02-28T22:26:46.482Z,18.40
2023-02-28T22:29:12.858Z,18.60
2023-02-28T22:31:39.442Z,19.20
2023-02-28T22:34:08.830Z,19.63
2023-02-28T22:36:36.382Z,20.60
2023-02-28T22:39:04.756Z,18.93
2023-02-28T22:41:31.458Z,19.67
2023-02-28T22:44:01.529Z,18.97
2023-02-28T22:46:29.916Z,18.70
2023-02-28T22:48:58.296Z,17.77
2023-02-28T22:51:26.262Z,18.53
2023-02-28T22:53:54.282Z,18.97
2023-02-28T22:56:23.819Z,17.97
2023-02-28T22:58:56.253Z,18.63
2023-02-28T23:01:25.037Z,20.00
2023-02-28T23:03:52.113Z,19.27
2023-02-28T23:06:42.562Z,16.93
2023-02-28T23:09:15.373Z,19.00
2023-02-28T23:11:45.145Z,17.87
2023-02-28T23:14:13.241Z,18.73
2023-02-28T23:16:43.573Z,17.63
2023-02-28T23:19:14.346Z,17.80
2023-02-28T23:21:41.617Z,18.43
2023-02-28T23:24:12.233Z,17.73
2023-02-28T23:26:41.733Z,17.80
2023-02-28T23:29:08.823Z,17.47
2023-02-28T23:31:35.874Z,17.23
2023-02-28T23:34:02.445Z,18.27
2023-02-28T23:36:29.485Z,18.57
2023-02-28T23:38:56.196Z,16.13
2023-02-28T23:41:23.836Z,18.83
2023-02-28T23:43:52.417Z,18.57
2023-02-28T23:46:20.561Z,17.33
2023-02-28T23:48:46.982Z,15.73
2023-02-28T23:51:18.472Z,17.07
2023-02-28T23:53:47.285Z,18.37
2023-02-28T23:56:16.570Z,17.17
2023-02-28T23:58:44.513Z,18.17
